sensor_id;sensor_type;location;lat;lon;timestamp;pressure;altitude;pressure_sealevel;temperature;humidity
58473;BME280;44775;51.564;5.460;2022-07-04T00:02:24;101800.19;;;11.68;98.84
58473;BME280;44775;51.564;5.460;2022-07-04T00:04:49;101796.13;;;11.64;99.16
58473;BME280;44775;51.564;5.460;2022-07-04T00:07:15;101794.69;;;11.69;100.00
58473;BME280;44775;51.564;5.460;2022-07-04T00:09:40;101794.16;;;11.66;99.49
58473;BME280;44775;51.564;5.460;2022-07-04T00:12:06;101806.28;;;11.60;98.94
58473;BME280;44775;51.564;5.460;2022-07-04T00:14:31;101800.56;;;11.55;99.11
58473;BME280;44775;51.564;5.460;2022-07-04T00:16:57;101797.41;;;11.59;99.68
58473;BME280;44775;51.564;5.460;2022-07-04T00:19:22;101793.66;;;11.52;99.73
58473;BME280;44775;51.564;5.460;2022-07-04T00:21:48;101789.69;;;11.56;99.17
58473;BME280;44775;51.564;5.460;2022-07-04T00:24:13;101797.88;;;11.55;99.38
58473;BME280;44775;51.564;5.460;2022-07-04T00:26:38;101788.09;;;11.46;99.27
58473;BME280;44775;51.564;5.460;2022-07-04T00:29:04;101788.91;;;11.46;99.90
58473;BME280;44775;51.564;5.460;2022-07-04T00:31:29;101793.44;;;11.46;99.68
58473;BME280;44775;51.564;5.460;2022-07-04T00:33:55;101783.19;;;11.41;99.34
58473;BME280;44775;51.564;5.460;2022-07-04T00:36:21;101785.63;;;11.34;100.00
58473;BME280;44775;51.564;5.460;2022-07-04T00:38:46;101785.75;;;11.33;100.00
58473;BME280;44775;51.564;5.460;2022-07-04T00:41:12;101788.75;;;11.30;100.00
58473;BME280;44775;51.564;5.460;2022-07-04T00:43:38;101788.06;;;11.28;100.00
58473;BME280;44775;51.564;5.460;2022-07-04T00:46:04;101787.53;;;11.24;100.00
58473;BME280;44775;51.564;5.460;2022-07-04T00:48:31;101793.59;;;11.17;100.00
58473;BME280;44775;51.564;5.460;2022-07-04T00:50:57;101786.56;;;11.16;100.00
58473;BME280;44775;51.564;5.460;2022-07-04T00:53:23;101779.31;;;11.08;100.00
58473;BME280;44775;51.564;5.460;2022-07-04T00:55:52;101786.09;;;11.02;100.00
58473;BME280;44775;51.564;5.460;2022-07-04T00:58:21;101791.44;;;11.02;100.00
58473;BME280;44775;51.564;5.460;2022-07-04T01:00:46;101787.09;;;11.01;100.00
58473;BME280;44775;51.564;5.460;2022-07-04T01:03:12;101790.06;;;10.98;100.00
58473;BME280;44775;51.564;5.460;2022-07-04T01:05:38;101791.34;;;10.94;100.00
58473;BME280;44775;51.564;5.460;2022-07-04T01:08:04;101785.59;;;10.89;100.00
58473;BME280;44775;51.564;5.460;2022-07-04T01:10:30;101782.81;;;10.81;100.00
58473;BME280;44775;51.564;5.460;2022-07-04T01:12:56;101769.03;;;10.76;100.00
58473;BME280;44775;51.564;5.460;2022-07-04T01:15:22;101769.75;;;10.78;100.00
58473;BME280;44775;51.564;5.460;2022-07-04T01:17:48;101771.56;;;10.77;100.00
58473;BME280;44775;51.564;5.460;2022-07-04T01:20:13;101768.59;;;10.80;100.00
58473;BME280;44775;51.564;5.460;2022-07-04T01:22:40;101770.41;;;10.80;100.00
58473;BME280;44775;51.564;5.460;2022-07-04T01:25:07;101766.22;;;10.77;100.00
58473;BME280;44775;51.564;5.460;2022-07-04T01:27:33;101762.84;;;10.75;100.00
58473;BME280;44775;51.564;5.460;2022-07-04T01:29:58;101757.66;;;10.74;100.00
58473;BME280;44775;51.564;5.460;2022-07-04T01:32:24;101759.03;;;10.78;100.00
58473;BME280;44775;51.564;5.460;2022-07-04T01:34:49;101760.19;;;10.75;100.00
58473;BME280;44775;51.564;5.460;2022-07-04T01:37:15;101757.03;;;10.80;100.00
58473;BME280;44775;51.564;5.460;2022-07-04T01:39:40;101754.81;;;10.75;100.00
58473;BME280;44775;51.564;5.460;2022-07-04T01:42:07;101752.44;;;10.72;100.00
58473;BME280;44775;51.564;5.460;2022-07-04T01:44:33;101750.22;;;10.68;100.00
58473;BME280;44775;51.564;5.460;2022-07-04T01:47:00;101760.63;;;10.71;100.00
58473;BME280;44775;51.564;5.460;2022-07-04T01:49:26;101754.56;;;10.69;100.00
58473;BME280;44775;51.564;5.460;2022-07-04T01:51:52;101749.94;;;10.71;100.00
58473;BME280;44775;51.564;5.460;2022-07-04T01:54:18;101747.38;;;10.69;100.00
58473;BME280;44775;51.564;5.460;2022-07-04T01:56:44;101751.06;;;10.68;100.00
58473;BME280;44775;51.564;5.460;2022-07-04T01:59:09;101743.06;;;10.58;100.00
58473;BME280;44775;51.564;5.460;2022-07-04T02:01:35;101736.19;;;10.56;100.00
58473;BME280;44775;51.564;5.460;2022-07-04T02:04:05;101745.06;;;10.56;100.00
58473;BME280;44775;51.564;5.460;2022-07-04T02:06:31;101733.13;;;10.51;100.00
58473;BME280;44775;51.564;5.460;2022-07-04T02:08:57;101731.75;;;10.47;100.00
58473;BME280;44775;51.564;5.460;2022-07-04T02:11:40;101733.41;;;10.48;100.00
58473;BME280;44775;51.564;5.460;2022-07-04T02:14:24;101738.94;;;10.46;100.00
58473;BME280;44775;51.564;5.460;2022-07-04T02:16:50;101733.88;;;10.43;100.00
58473;BME280;44775;51.564;5.460;2022-07-04T02:19:16;101742.00;;;10.42;100.00
58473;BME280;44775;51.564;5.460;2022-07-04T02:21:42;101741.19;;;10.41;100.00
58473;BME280;44775;51.564;5.460;2022-07-04T02:24:07;101736.00;;;10.39;100.00
58473;BME280;44775;51.564;5.460;2022-07-04T02:26:33;101733.31;;;10.39;100.00
58473;BME280;44775;51.564;5.460;2022-07-04T02:28:58;101735.25;;;10.47;100.00
58473;BME280;44775;51.564;5.460;2022-07-04T02:31:24;101736.66;;;10.42;100.00
58473;BME280;44775;51.564;5.460;2022-07-04T02:33:49;101741.47;;;10.38;100.00
58473;BME280;44775;51.564;5.460;2022-07-04T02:36:15;101746.53;;;10.31;100.00
58473;BME280;44775;51.564;5.460;2022-07-04T02:38:40;101743.31;;;10.28;100.00
58473;BME280;44775;51.564;5.460;2022-07-04T02:41:06;101744.56;;;10.24;100.00
58473;BME280;44775;51.564;5.460;2022-07-04T02:43:31;101744.16;;;10.18;100.00
58473;BME280;44775;51.564;5.460;2022-07-04T02:45:56;101737.41;;;10.14;100.00
58473;BME280;44775;51.564;5.460;2022-07-04T02:48:22;101744.75;;;10.12;100.00
58473;BME280;44775;51.564;5.460;2022-07-04T02:50:47;101743.59;;;10.15;100.00
58473;BME280;44775;51.564;5.460;2022-07-04T02:53:13;101746.00;;;10.08;100.00
58473;BME280;44775;51.564;5.460;2022-07-04T02:55:38;101743.59;;;10.05;100.00
58473;BME280;44775;51.564;5.460;2022-07-04T02:58:04;101749.09;;;10.04;100.00
58473;BME280;44775;51.564;5.460;2022-07-04T03:00:29;101750.94;;;10.03;100.00
58473;BME280;44775;51.564;5.460;2022-07-04T03:02:55;101746.56;;;10.02;100.00
58473;BME280;44775;51.564;5.460;2022-07-04T03:05:20;101752.63;;;10.04;100.00
58473;BME280;44775;51.564;5.460;2022-07-04T03:07:46;101752.91;;;10.01;100.00
58473;BME280;44775;51.564;5.460;2022-07-04T03:10:11;101757.13;;;10.04;100.00
58473;BME280;44775;51.564;5.460;2022-07-04T03:12:37;101759.78;;;10.04;100.00
58473;BME280;44775;51.564;5.460;2022-07-04T03:15:03;101758.53;;;9.98;100.00
58473;BME280;44775;51.564;5.460;2022-07-04T03:17:28;101766.25;;;10.01;100.00
58473;BME280;44775;51.564;5.460;2022-07-04T03:19:56;101766.69;;;9.97;100.00
58473;BME280;44775;51.564;5.460;2022-07-04T03:22:21;101776.25;;;9.99;100.00
58473;BME280;44775;51.564;5.460;2022-07-04T03:24:47;101777.66;;;10.03;100.00
58473;BME280;44775;51.564;5.460;2022-07-04T03:27:12;101773.97;;;10.04;100.00
58473;BME280;44775;51.564;5.460;2022-07-04T03:29:38;101770.47;;;10.04;100.00
58473;BME280;44775;51.564;5.460;2022-07-04T03:32:04;101772.03;;;10.06;100.00
58473;BME280;44775;51.564;5.460;2022-07-04T03:34:29;101779.88;;;10.08;100.00
58473;BME280;44775;51.564;5.460;2022-07-04T03:36:55;101777.63;;;10.13;100.00
58473;BME280;44775;51.564;5.460;2022-07-04T03:39:21;101777.09;;;10.09;100.00
58473;BME280;44775;51.564;5.460;2022-07-04T03:41:47;101789.16;;;10.13;100.00
58473;BME280;44775;51.564;5.460;2022-07-04T03:44:12;101781.97;;;10.14;100.00
58473;BME280;44775;51.564;5.460;2022-07-04T03:46:38;101784.94;;;10.21;100.00
58473;BME280;44775;51.564;5.460;2022-07-04T03:49:03;101794.25;;;10.26;100.00
58473;BME280;44775;51.564;5.460;2022-07-04T03:51:29;101799.59;;;10.26;100.00
58473;BME280;44775;51.564;5.460;2022-07-04T03:53:54;101802.81;;;10.30;100.00
58473;BME280;44775;51.564;5.460;2022-07-04T03:56:20;101801.81;;;10.31;100.00
58473;BME280;44775;51.564;5.460;2022-07-04T03:58:46;101802.63;;;10.41;100.00
58473;BME280;44775;51.564;5.460;2022-07-04T04:01:16;101803.47;;;10.42;100.00
58473;BME280;44775;51.564;5.460;2022-07-04T04:03:42;101809.38;;;10.45;100.00
58473;BME280;44775;51.564;5.460;2022-07-04T04:06:27;101813.84;;;10.54;100.00
58473;BME280;44775;51.564;5.460;2022-07-04T04:08:53;101814.56;;;10.56;100.00
58473;BME280;44775;51.564;5.460;2022-07-04T04:11:18;101812.56;;;10.58;100.00
58473;BME280;44775;51.564;5.460;2022-07-04T04:13:44;101812.00;;;10.64;100.00
58473;BME280;44775;51.564;5.460;2022-07-04T04:16:09;101808.19;;;10.67;100.00
58473;BME280;44775;51.564;5.460;2022-07-04T04:18:35;101800.56;;;10.72;100.00
58473;BME280;44775;51.564;5.460;2022-07-04T04:21:00;101801.94;;;10.76;100.00
58473;BME280;44775;51.564;5.460;2022-07-04T04:23:26;101813.91;;;10.82;100.00
58473;BME280;44775;51.564;5.460;2022-07-04T04:25:51;101817.13;;;10.85;100.00
58473;BME280;44775;51.564;5.460;2022-07-04T04:28:17;101818.66;;;10.88;100.00
58473;BME280;44775;51.564;5.460;2022-07-04T04:30:43;101830.47;;;10.95;100.00
58473;BME280;44775;51.564;5.460;2022-07-04T04:33:08;101826.50;;;10.99;100.00
58473;BME280;44775;51.564;5.460;2022-07-04T04:35:33;101828.13;;;11.10;100.00
58473;BME280;44775;51.564;5.460;2022-07-04T04:37:59;101839.69;;;11.10;100.00
58473;BME280;44775;51.564;5.460;2022-07-04T04:40:24;101838.94;;;11.18;100.00
58473;BME280;44775;51.564;5.460;2022-07-04T04:42:50;101840.34;;;11.22;100.00
58473;BME280;44775;51.564;5.460;2022-07-04T04:45:16;101834.09;;;11.31;100.00
58473;BME280;44775;51.564;5.460;2022-07-04T04:47:41;101832.34;;;11.40;100.00
58473;BME280;44775;51.564;5.460;2022-07-04T04:50:09;101833.75;;;11.44;100.00
58473;BME280;44775;51.564;5.460;2022-07-04T04:52:43;101828.94;;;11.48;100.00
58473;BME280;44775;51.564;5.460;2022-07-04T04:55:08;101824.66;;;11.55;100.00
58473;BME280;44775;51.564;5.460;2022-07-04T04:57:34;101825.03;;;11.60;100.00
58473;BME280;44775;51.564;5.460;2022-07-04T05:00:00;101824.72;;;11.63;100.00
58473;BME280;44775;51.564;5.460;2022-07-04T05:02:26;101825.81;;;11.70;100.00
58473;BME280;44775;51.564;5.460;2022-07-04T05:04:52;101821.69;;;11.76;100.00
58473;BME280;44775;51.564;5.460;2022-07-04T05:07:18;101821.09;;;11.82;100.00
58473;BME280;44775;51.564;5.460;2022-07-04T05:09:43;101822.00;;;11.91;100.00
58473;BME280;44775;51.564;5.460;2022-07-04T05:12:09;101820.09;;;12.01;100.00
58473;BME280;44775;51.564;5.460;2022-07-04T05:14:34;101815.66;;;12.10;100.00
58473;BME280;44775;51.564;5.460;2022-07-04T05:17:00;101825.69;;;12.25;100.00
58473;BME280;44775;51.564;5.460;2022-07-04T05:19:25;101824.88;;;12.33;100.00
58473;BME280;44775;51.564;5.460;2022-07-04T05:21:50;101820.09;;;12.45;100.00
58473;BME280;44775;51.564;5.460;2022-07-04T05:24:16;101824.69;;;12.52;100.00
58473;BME280;44775;51.564;5.460;2022-07-04T05:26:42;101812.69;;;12.65;100.00
58473;BME280;44775;51.564;5.460;2022-07-04T05:29:08;101815.63;;;12.80;100.00
58473;BME280;44775;51.564;5.460;2022-07-04T05:31:33;101814.53;;;12.90;100.00
58473;BME280;44775;51.564;5.460;2022-07-04T05:33:59;101813.75;;;13.06;99.69
58473;BME280;44775;51.564;5.460;2022-07-04T05:36:25;101828.13;;;13.31;99.43
58473;BME280;44775;51.564;5.460;2022-07-04T05:38:51;101830.22;;;13.54;96.97
58473;BME280;44775;51.564;5.460;2022-07-04T05:41:17;101833.97;;;13.85;96.08
58473;BME280;44775;51.564;5.460;2022-07-04T05:43:43;101835.00;;;14.09;94.31
58473;BME280;44775;51.564;5.460;2022-07-04T05:46:08;101840.38;;;14.41;91.73
58473;BME280;44775;51.564;5.460;2022-07-04T05:48:34;101840.66;;;14.71;89.04
58473;BME280;44775;51.564;5.460;2022-07-04T05:50:59;101842.47;;;14.95;87.60
58473;BME280;44775;51.564;5.460;2022-07-04T05:53:25;101843.53;;;15.25;86.08
58473;BME280;44775;51.564;5.460;2022-07-04T05:55:50;101841.03;;;15.55;85.53
58473;BME280;44775;51.564;5.460;2022-07-04T05:58:16;101847.25;;;16.10;83.05
58473;BME280;44775;51.564;5.460;2022-07-04T06:00:42;101848.38;;;16.38;81.23
58473;BME280;44775;51.564;5.460;2022-07-04T06:03:08;101858.09;;;16.62;79.57
58473;BME280;44775;51.564;5.460;2022-07-04T06:05:33;101850.97;;;16.99;78.17
58473;BME280;44775;51.564;5.460;2022-07-04T06:07:59;101853.50;;;17.15;76.96
58473;BME280;44775;51.564;5.460;2022-07-04T06:10:24;101857.25;;;17.51;74.52
58473;BME280;44775;51.564;5.460;2022-07-04T06:12:50;101865.47;;;17.42;73.55
58473;BME280;44775;51.564;5.460;2022-07-04T06:15:15;101848.25;;;17.65;73.42
58473;BME280;44775;51.564;5.460;2022-07-04T06:17:41;101857.47;;;17.70;72.38
58473;BME280;44775;51.564;5.460;2022-07-04T06:20:08;101860.78;;;18.02;71.21
58473;BME280;44775;51.564;5.460;2022-07-04T06:22:45;101857.91;;;18.32;71.46
58473;BME280;44775;51.564;5.460;2022-07-04T06:25:15;101859.50;;;18.48;70.04
58473;BME280;44775;51.564;5.460;2022-07-04T06:27:42;101857.28;;;18.86;67.78
58473;BME280;44775;51.564;5.460;2022-07-04T06:30:08;101856.22;;;19.15;66.96
58473;BME280;44775;51.564;5.460;2022-07-04T06:32:48;101854.41;;;19.29;66.89
58473;BME280;44775;51.564;5.460;2022-07-04T06:35:16;101853.81;;;19.40;65.24
58473;BME280;44775;51.564;5.460;2022-07-04T06:38:01;101852.72;;;19.76;63.22
58473;BME280;44775;51.564;5.460;2022-07-04T06:40:26;101857.91;;;19.71;63.23
58473;BME280;44775;51.564;5.460;2022-07-04T06:42:52;101864.16;;;19.65;63.82
58473;BME280;44775;51.564;5.460;2022-07-04T06:45:17;101861.34;;;20.13;62.95
58473;BME280;44775;51.564;5.460;2022-07-04T06:47:44;101876.59;;;20.67;60.18
58473;BME280;44775;51.564;5.460;2022-07-04T06:50:09;101876.84;;;20.59;59.73
58473;BME280;44775;51.564;5.460;2022-07-04T06:52:35;101872.63;;;20.29;60.27
58473;BME280;44775;51.564;5.460;2022-07-04T06:55:00;101871.94;;;20.01;60.68
58473;BME280;44775;51.564;5.460;2022-07-04T06:57:26;101875.88;;;19.72;61.30
58473;BME280;44775;51.564;5.460;2022-07-04T06:59:51;101867.00;;;19.56;61.83
58473;BME280;44775;51.564;5.460;2022-07-04T07:02:17;101854.56;;;19.21;63.62
58473;BME280;44775;51.564;5.460;2022-07-04T07:04:43;101853.47;;;19.08;63.67
58473;BME280;44775;51.564;5.460;2022-07-04T07:07:08;101849.47;;;19.52;63.19
58473;BME280;44775;51.564;5.460;2022-07-04T07:09:34;101851.09;;;20.21;60.77
58473;BME280;44775;51.564;5.460;2022-07-04T07:12:00;101852.38;;;20.39;60.20
58473;BME280;44775;51.564;5.460;2022-07-04T07:14:25;101852.78;;;20.75;57.85
58473;BME280;44775;51.564;5.460;2022-07-04T07:16:51;101857.25;;;21.15;57.03
58473;BME280;44775;51.564;5.460;2022-07-04T07:19:16;101863.16;;;20.98;57.06
58473;BME280;44775;51.564;5.460;2022-07-04T07:21:41;101853.69;;;21.21;57.37
58473;BME280;44775;51.564;5.460;2022-07-04T07:24:07;101850.63;;;21.94;55.77
58473;BME280;44775;51.564;5.460;2022-07-04T07:26:32;101856.81;;;22.08;54.16
58473;BME280;44775;51.564;5.460;2022-07-04T07:28:58;101854.97;;;22.33;53.72
58473;BME280;44775;51.564;5.460;2022-07-04T07:31:23;101871.69;;;22.62;52.75
58473;BME280;44775;51.564;5.460;2022-07-04T07:33:49;101861.88;;;22.79;51.89
58473;BME280;44775;51.564;5.460;2022-07-04T07:36:14;101876.59;;;23.33;51.24
58473;BME280;44775;51.564;5.460;2022-07-04T07:38:40;101869.97;;;23.60;50.27
58473;BME280;44775;51.564;5.460;2022-07-04T07:41:09;101883.63;;;24.32;49.12
58473;BME280;44775;51.564;5.460;2022-07-04T07:43:35;101871.69;;;24.44;47.52
58473;BME280;44775;51.564;5.460;2022-07-04T07:46:04;101869.22;;;24.13;46.57
58473;BME280;44775;51.564;5.460;2022-07-04T07:48:29;101856.13;;;24.45;46.72
58473;BME280;44775;51.564;5.460;2022-07-04T07:50:55;101853.72;;;24.84;45.83
58473;BME280;44775;51.564;5.460;2022-07-04T07:53:20;101850.59;;;25.27;44.39
58473;BME280;44775;51.564;5.460;2022-07-04T07:55:46;101852.91;;;24.95;43.90
58473;BME280;44775;51.564;5.460;2022-07-04T07:58:11;101852.94;;;24.71;43.67
58473;BME280;44775;51.564;5.460;2022-07-04T08:00:37;101849.09;;;24.72;43.31
58473;BME280;44775;51.564;5.460;2022-07-04T08:03:02;101839.78;;;24.15;44.10
58473;BME280;44775;51.564;5.460;2022-07-04T08:05:46;101838.97;;;23.72;45.63
58473;BME280;44775;51.564;5.460;2022-07-04T08:08:11;101841.28;;;23.99;44.69
58473;BME280;44775;51.564;5.460;2022-07-04T08:10:37;101843.38;;;24.39;43.72
58473;BME280;44775;51.564;5.460;2022-07-04T08:13:04;101845.66;;;24.42;43.28
58473;BME280;44775;51.564;5.460;2022-07-04T08:15:30;101844.47;;;24.85;43.22
58473;BME280;44775;51.564;5.460;2022-07-04T08:17:56;101849.81;;;25.15;42.52
58473;BME280;44775;51.564;5.460;2022-07-04T08:20:21;101848.78;;;25.33;41.80
58473;BME280;44775;51.564;5.460;2022-07-04T08:22:47;101848.63;;;25.80;41.04
58473;BME280;44775;51.564;5.460;2022-07-04T08:25:12;101852.56;;;26.18;40.16
58473;BME280;44775;51.564;5.460;2022-07-04T08:27:40;101863.59;;;26.73;39.37
58473;BME280;44775;51.564;5.460;2022-07-04T08:30:06;101864.28;;;26.64;38.25
58473;BME280;44775;51.564;5.460;2022-07-04T08:32:31;101856.63;;;26.32;38.77
58473;BME280;44775;51.564;5.460;2022-07-04T08:34:57;101861.53;;;26.30;39.11
58473;BME280;44775;51.564;5.460;2022-07-04T08:37:23;101853.53;;;25.37;40.66
58473;BME280;44775;51.564;5.460;2022-07-04T08:39:49;101857.19;;;25.72;39.94
58473;BME280;44775;51.564;5.460;2022-07-04T08:42:17;101865.69;;;26.16;40.13
58473;BME280;44775;51.564;5.460;2022-07-04T08:44:47;101862.03;;;26.44;39.40
58473;BME280;44775;51.564;5.460;2022-07-04T08:47:17;101864.50;;;26.45;38.54
58473;BME280;44775;51.564;5.460;2022-07-04T08:49:49;101863.34;;;26.41;39.16
58473;BME280;44775;51.564;5.460;2022-07-04T08:52:27;101879.38;;;26.66;38.96
58473;BME280;44775;51.564;5.460;2022-07-04T08:54:56;101875.00;;;26.65;38.02
58473;BME280;44775;51.564;5.460;2022-07-04T08:57:40;101864.63;;;26.89;38.98
58473;BME280;44775;51.564;5.460;2022-07-04T09:00:25;101871.66;;;27.41;37.93
58473;BME280;44775;51.564;5.460;2022-07-04T09:02:50;101869.06;;;28.10;36.68
58473;BME280;44775;51.564;5.460;2022-07-04T09:05:17;101863.84;;;28.09;36.49
58473;BME280;44775;51.564;5.460;2022-07-04T09:07:43;101870.13;;;28.04;37.22
58473;BME280;44775;51.564;5.460;2022-07-04T09:10:09;101861.75;;;27.89;36.81
58473;BME280;44775;51.564;5.460;2022-07-04T09:12:35;101872.84;;;28.68;35.75
58473;BME280;44775;51.564;5.460;2022-07-04T09:15:00;101873.28;;;28.92;35.06
58473;BME280;44775;51.564;5.460;2022-07-04T09:17:26;101873.28;;;28.50;35.61
58473;BME280;44775;51.564;5.460;2022-07-04T09:20:15;101872.00;;;28.68;37.08
58473;BME280;44775;51.564;5.460;2022-07-04T09:22:41;101874.09;;;28.51;35.15
58473;BME280;44775;51.564;5.460;2022-07-04T09:25:07;101864.94;;;28.77;35.90
58473;BME280;44775;51.564;5.460;2022-07-04T09:27:35;101867.38;;;28.74;35.64
58473;BME280;44775;51.564;5.460;2022-07-04T09:30:02;101880.81;;;29.80;34.52
58473;BME280;44775;51.564;5.460;2022-07-04T09:32:45;101872.00;;;29.94;34.28
58473;BME280;44775;51.564;5.460;2022-07-04T09:35:23;101860.66;;;29.80;34.05
58473;BME280;44775;51.564;5.460;2022-07-04T09:37:51;101863.13;;;29.76;33.78
58473;BME280;44775;51.564;5.460;2022-07-04T09:40:29;101859.34;;;30.28;33.22
58473;BME280;44775;51.564;5.460;2022-07-04T09:42:57;101859.31;;;30.03;32.57
58473;BME280;44775;51.564;5.460;2022-07-04T09:45:22;101861.81;;;30.55;33.55
58473;BME280;44775;51.564;5.460;2022-07-04T09:47:51;101861.53;;;30.11;32.66
58473;BME280;44775;51.564;5.460;2022-07-04T09:50:20;101857.97;;;30.31;32.74
58473;BME280;44775;51.564;5.460;2022-07-04T09:53:05;101848.25;;;30.79;31.41
58473;BME280;44775;51.564;5.460;2022-07-04T09:55:35;101853.97;;;31.03;31.52
58473;BME280;44775;51.564;5.460;2022-07-04T09:58:03;101857.53;;;31.04;31.00
58473;BME280;44775;51.564;5.460;2022-07-04T10:02:55;101853.03;;;31.23;30.71
58473;BME280;44775;51.564;5.460;2022-07-04T10:05:26;101856.41;;;31.10;30.08
58473;BME280;44775;51.564;5.460;2022-07-04T10:07:54;101858.16;;;30.70;30.66
58473;BME280;44775;51.564;5.460;2022-07-04T10:10:34;101857.75;;;31.23;30.68
58473;BME280;44775;51.564;5.460;2022-07-04T10:13:05;101854.22;;;31.12;30.36
58473;BME280;44775;51.564;5.460;2022-07-04T10:15:32;101856.09;;;31.22;30.20
58473;BME280;44775;51.564;5.460;2022-07-04T10:17:59;101853.00;;;31.78;29.81
58473;BME280;44775;51.564;5.460;2022-07-04T10:20:25;101849.94;;;31.90;28.94
58473;BME280;44775;51.564;5.460;2022-07-04T10:22:51;101847.81;;;31.32;29.63
58473;BME280;44775;51.564;5.460;2022-07-04T10:25:17;101836.66;;;30.72;30.76
58473;BME280;44775;51.564;5.460;2022-07-04T10:27:44;101832.25;;;30.66;31.86
58473;BME280;44775;51.564;5.460;2022-07-04T10:30:13;101837.88;;;31.21;31.00
58473;BME280;44775;51.564;5.460;2022-07-04T10:32:40;101836.63;;;30.93;30.32
58473;BME280;44775;51.564;5.460;2022-07-04T10:35:09;101836.53;;;31.08;30.03
58473;BME280;44775;51.564;5.460;2022-07-04T10:38:12;101834.06;;;31.01;30.64
58473;BME280;44775;51.564;5.460;2022-07-04T10:40:48;101825.53;;;30.98;30.16
58473;BME280;44775;51.564;5.460;2022-07-04T10:51:47;101821.81;;;30.53;31.34
58473;BME280;44775;51.564;5.460;2022-07-04T10:54:30;101813.28;;;28.94;33.17
58473;BME280;44775;51.564;5.460;2022-07-04T10:56:57;101807.56;;;29.01;32.61
58473;BME280;44775;51.564;5.460;2022-07-04T10:59:24;101808.88;;;30.02;31.33
58473;BME280;44775;51.564;5.460;2022-07-04T11:05:08;101809.34;;;30.76;30.98
58473;BME280;44775;51.564;5.460;2022-07-04T11:18:10;101815.47;;;30.37;30.61
58473;BME280;44775;51.564;5.460;2022-07-04T11:20:36;101820.44;;;29.69;31.84
58473;BME280;44775;51.564;5.460;2022-07-04T11:23:12;101817.44;;;29.91;33.77
58473;BME280;44775;51.564;5.460;2022-07-04T11:25:39;101814.94;;;29.79;34.75
58473;BME280;44775;51.564;5.460;2022-07-04T11:30:56;101808.63;;;30.14;34.20
58473;BME280;44775;51.564;5.460;2022-07-04T11:33:25;101805.03;;;29.68;34.82
58473;BME280;44775;51.564;5.460;2022-07-04T11:36:26;101805.75;;;29.37;34.71
58473;BME280;44775;51.564;5.460;2022-07-04T11:39:03;101807.84;;;28.15;37.00
58473;BME280;44775;51.564;5.460;2022-07-04T11:41:37;101806.44;;;27.80;38.22
58473;BME280;44775;51.564;5.460;2022-07-04T11:44:24;101797.06;;;27.76;38.29
58473;BME280;44775;51.564;5.460;2022-07-04T11:49:35;101799.44;;;27.67;37.12
58473;BME280;44775;51.564;5.460;2022-07-04T11:52:01;101801.31;;;27.62;37.83
58473;BME280;44775;51.564;5.460;2022-07-04T11:54:27;101798.72;;;28.09;37.23
58473;BME280;44775;51.564;5.460;2022-07-04T11:57:10;101795.53;;;29.17;34.96
58473;BME280;44775;51.564;5.460;2022-07-04T11:59:35;101790.41;;;30.39;32.83
58473;BME280;44775;51.564;5.460;2022-07-04T12:02:14;101801.91;;;30.66;32.17
58473;BME280;44775;51.564;5.460;2022-07-04T12:04:40;101796.47;;;30.35;32.04
58473;BME280;44775;51.564;5.460;2022-07-04T12:07:27;101797.31;;;30.31;32.71
58473;BME280;44775;51.564;5.460;2022-07-04T12:09:53;101779.94;;;29.89;33.21
58473;BME280;44775;51.564;5.460;2022-07-04T12:12:20;101784.84;;;29.52;33.87
58473;BME280;44775;51.564;5.460;2022-07-04T12:15:00;101784.66;;;29.84;32.79
58473;BME280;44775;51.564;5.460;2022-07-04T12:17:52;101785.56;;;30.90;31.29
58473;BME280;44775;51.564;5.460;2022-07-04T12:20:20;101782.72;;;31.55;30.17
58473;BME280;44775;51.564;5.460;2022-07-04T12:22:57;101781.19;;;32.36;29.26
58473;BME280;44775;51.564;5.460;2022-07-04T12:25:31;101787.59;;;32.61;27.68
58473;BME280;44775;51.564;5.460;2022-07-04T12:28:05;101783.88;;;32.17;28.41
58473;BME280;44775;51.564;5.460;2022-07-04T12:30:34;101789.84;;;32.01;26.65
58473;BME280;44775;51.564;5.460;2022-07-04T12:33:02;101787.19;;;30.91;28.59
58473;BME280;44775;51.564;5.460;2022-07-04T12:38:17;101772.78;;;31.04;28.96
58473;BME280;44775;51.564;5.460;2022-07-04T12:40:51;101770.75;;;31.65;29.21
58473;BME280;44775;51.564;5.460;2022-07-04T12:43:17;101775.72;;;32.02;27.18
58473;BME280;44775;51.564;5.460;2022-07-04T12:45:51;101775.94;;;31.77;27.88
58473;BME280;44775;51.564;5.460;2022-07-04T12:48:28;101773.53;;;31.25;28.47
58473;BME280;44775;51.564;5.460;2022-07-04T12:50:59;101772.25;;;31.86;28.17
58473;BME280;44775;51.564;5.460;2022-07-04T12:53:42;101771.94;;;32.51;27.41
58473;BME280;44775;51.564;5.460;2022-07-04T12:56:08;101771.41;;;32.49;27.14
58473;BME280;44775;51.564;5.460;2022-07-04T12:58:34;101770.59;;;31.90;27.29
58473;BME280;44775;51.564;5.460;2022-07-04T13:01:00;101767.47;;;32.26;27.59
58473;BME280;44775;51.564;5.460;2022-07-04T13:03:26;101760.56;;;32.00;27.54
58473;BME280;44775;51.564;5.460;2022-07-04T13:05:51;101760.19;;;32.06;27.43
58473;BME280;44775;51.564;5.460;2022-07-04T13:08:17;101757.28;;;32.21;27.41
58473;BME280;44775;51.564;5.460;2022-07-04T13:10:42;101765.19;;;32.33;27.11
58473;BME280;44775;51.564;5.460;2022-07-04T13:13:08;101763.44;;;32.42;26.75
58473;BME280;44775;51.564;5.460;2022-07-04T13:15:33;101762.09;;;33.07;26.49
58473;BME280;44775;51.564;5.460;2022-07-04T13:17:59;101764.53;;;32.89;26.33
58473;BME280;44775;51.564;5.460;2022-07-04T13:20:26;101759.84;;;32.42;26.88
58473;BME280;44775;51.564;5.460;2022-07-04T13:22:52;101756.75;;;32.19;27.38